Huvudsida
METAR-TAF:

METAR-TAF

Flygplatser :

Örnsköldsvik Airport

Örnsköldsvik, Sverige

latitud: 63-24N, longitud: 018-58E, höjd: 103 m

Aktuellt väderrapport

Denna rapport gjordes för 16 minuter sedan, klockan 05:50 UTC
Vind 17 kt från syd i byarna ända upp till 29 kt
Temperatur 10°C
Fuktighet 82%
Tryck 979 hPa
Sikt: 5000 m
Få moln på en höjd av 600 ft
Brutna moln på en höjd av 1500 ft
regn

METAR: ESNO 220550Z 17017G29KT 5000 RA FEW006 BKN015 10/07 Q0979

Tid: 08:06 (06:06 UTC)

Väderprognos

Denna rapport gjordes för 36 minuter sedan, klockan 05:30 UTC
Prognos gäller från 22 kl. 06 UTC till 22 kl. 12 UTC
Vind 18 kt från syd i byarna ända upp till 30 kt
Sikt 10 km eller mer
Brutna moln på en höjd av 1500 ft
Sannolikhet 40%
från 22 kl. 06 UTC till 22 kl. 11 UTC
Spridda moln på en höjd av 3000 ft, Cumulonimbus.
regnskurar

TAF: ESNO 220530Z 2206/2212 17018G30KT 9999 BKN015 PROB40 2206/2211 SHRA SCT030CB

Aktuella väderrapporter och prognoser från 4000 flygplatser (METAR- och TAF-rapporter).

De tillgängliga stationerna syns som gula och röda prickar på kartan.

För musen över prickarna för att se namnen på stationerna.

Klicka sedan för att få väderrapporter och prognoser.

För att ändra kartan: Klicka på de gröna knapparna med ett svart kors på för att zooma in; den gröna knappen med ett streck på för att zooma ut; eller på de gröna pilarna för angränsande kartor.


METAR-TAF: